Time;durP1;ratioP1;P1;durP2;ratioP2;P2;SDS_P1;SDS_P2;PMS_P1;PMS_P2;Temp;Humidity;BMP_temperature;BMP_pressure;BME280_temperature;BME280_humidity;BME280_pressure;Samples;Min_cycle;Max_cycle;Signal;HPM_P1;HPM_P2
2022/03/10 00:01:10;;;;;;;43.97;8.63;;;;;;;;;;5061046;28;20218;-64
2022/03/10 00:03:36;;;;;;;74.70;11.67;;;;;;;;;;5052986;28;20188;-64
2022/03/10 00:06:03;;;;;;;74.93;11.30;;;;;;;;;;5034979;28;20699;-64
2022/03/10 00:08:28;;;;;;;63.10;10.93;;;;;;;;;;5055989;28;20207;-64
2022/03/10 00:10:54;;;;;;;90.07;13.80;;;;;;;;;;5051977;28;20419;-64
2022/03/10 00:13:20;;;;;;;80.60;12.50;;;;;;;;;;5051134;28;20183;-63
2022/03/10 00:15:46;;;;;;;66.97;11.03;;;;;;;;;;5053573;28;20183;-63
2022/03/10 00:18:12;;;;;;;66.80;10.43;;;;;;;;;;5051776;28;20660;-64
2022/03/10 00:20:38;;;;;;;89.17;14.03;;;;;;;;;;5046186;28;20257;-64
2022/03/10 00:23:04;;;;;;;60.67;10.50;;;;;;;;;;5053357;28;20187;-64
2022/03/10 00:25:32;;;;;;;63.73;10.77;;;;;;;;;;5053986;28;20186;-64
2022/03/10 00:27:58;;;;;;;52.20;9.53;;;;;;;;;;5053297;28;20199;-64
2022/03/10 00:30:24;;;;;;;74.33;12.03;;;;;;;;;;5051448;28;20187;-64
2022/03/10 00:32:51;;;;;;;79.33;12.57;;;;;;;;;;5051936;28;20222;-64
2022/03/10 00:35:18;;;;;;;116.60;16.70;;;;;;;;;;5056867;28;20186;-64
2022/03/10 00:37:45;;;;;;;114.93;16.93;;;;;;;;;;5052584;28;20280;-64
2022/03/10 00:40:12;;;;;;;70.53;11.17;;;;;;;;;;5037201;28;20194;-64
2022/03/10 00:42:39;;;;;;;70.77;11.80;;;;;;;;;;5050822;28;20603;-64
2022/03/10 00:45:05;;;;;;;79.47;11.90;;;;;;;;;;5053841;28;20201;-64
2022/03/10 00:47:32;;;;;;;80.63;12.30;;;;;;;;;;5056908;28;20215;-64
2022/03/10 00:49:57;;;;;;;87.97;13.50;;;;;;;;;;5047782;28;21498;-64
2022/03/10 00:52:23;;;;;;;37.97;7.77;;;;;;;;;;5056438;28;20224;-64
2022/03/10 00:54:49;;;;;;;71.60;11.80;;;;;;;;;;5054829;28;20187;-64
2022/03/10 00:57:15;;;;;;;65.57;10.73;;;;;;;;;;5050718;28;20291;-64
2022/03/10 00:59:41;;;;;;;78.43;12.40;;;;;;;;;;5057074;28;20191;-64
2022/03/10 01:02:07;;;;;;;148.67;20.10;;;;;;;;;;5046655;28;20186;-64
2022/03/10 01:04:33;;;;;;;101.77;15.03;;;;;;;;;;5050970;28;20222;-64
2022/03/10 01:06:59;;;;;;;57.63;10.33;;;;;;;;;;5053841;28;20210;-64
2022/03/10 01:09:26;;;;;;;93.87;14.10;;;;;;;;;;5054997;28;20282;-64
2022/03/10 01:11:52;;;;;;;81.47;13.47;;;;;;;;;;5051825;28;20195;-64
2022/03/10 01:14:18;;;;;;;131.73;18.63;;;;;;;;;;5053344;28;20241;-64
2022/03/10 01:16:44;;;;;;;115.50;17.03;;;;;;;;;;5035661;28;20179;-65
2022/03/10 01:19:10;;;;;;;57.87;10.40;;;;;;;;;;5055379;28;20197;-64
2022/03/10 01:21:36;;;;;;;70.07;12.20;;;;;;;;;;5052105;28;20195;-64
2022/03/10 01:24:02;;;;;;;78.67;13.40;;;;;;;;;;5053341;28;20244;-64
2022/03/10 01:26:28;;;;;;;123.50;18.30;;;;;;;;;;5051120;28;20194;-64
2022/03/10 01:28:54;;;;;;;113.07;16.73;;;;;;;;;;5054025;28;20186;-64
2022/03/10 01:31:20;;;;;;;64.90;11.43;;;;;;;;;;5051560;28;20684;-64
2022/03/10 01:33:46;;;;;;;97.13;15.13;;;;;;;;;;5049346;28;20265;-64
2022/03/10 01:36:12;;;;;;;85.00;13.83;;;;;;;;;;5049039;28;20888;-63
2022/03/10 01:38:39;;;;;;;75.83;12.80;;;;;;;;;;5049732;28;20206;-64
2022/03/10 01:41:06;;;;;;;76.93;12.43;;;;;;;;;;5052790;28;20286;-64
2022/03/10 01:43:32;;;;;;;110.13;16.27;;;;;;;;;;5054328;28;20191;-63
2022/03/10 01:46:02;;;;;;;90.43;13.93;;;;;;;;;;5049556;28;20194;-64
2022/03/10 01:48:27;;;;;;;84.50;13.27;;;;;;;;;;5054266;28;20203;-64
2022/03/10 01:50:53;;;;;;;95.37;14.93;;;;;;;;;;5046723;28;20950;-64
2022/03/10 01:53:19;;;;;;;87.87;13.50;;;;;;;;;;5058425;28;20183;-64
2022/03/10 01:55:46;;;;;;;142.57;19.60;;;;;;;;;;5052363;28;20609;-63
2022/03/10 01:58:12;;;;;;;48.37;9.47;;;;;;;;;;5055801;28;20207;-64
2022/03/10 02:00:38;;;;;;;98.67;15.00;;;;;;;;;;5049786;28;20243;-64
2022/03/10 02:03:04;;;;;;;83.37;13.30;;;;;;;;;;5052796;28;20266;-64
2022/03/10 02:05:31;;;;;;;111.20;16.20;;;;;;;;;;5045564;28;20526;-64
2022/03/10 02:10:42;;;;;;;140.20;19.67;;;;;;;;;;5051598;28;20193;-64
2022/03/10 02:13:08;;;;;;;67.47;11.37;;;;;;;;;;5051549;28;20535;-63
2022/03/10 02:18:21;;;;;;;57.17;9.90;;;;;;;;;;5052700;28;21917;-64
2022/03/10 02:20:47;;;;;;;79.77;13.23;;;;;;;;;;5052874;28;20192;-64
2022/03/10 02:23:13;;;;;;;145.73;19.90;;;;;;;;;;5048441;28;20187;-63
2022/03/10 02:25:40;;;;;;;145.87;20.10;;;;;;;;;;5049130;28;20621;-64
2022/03/10 02:28:06;;;;;;;90.53;13.73;;;;;;;;;;5050339;28;20202;-64
2022/03/10 02:30:34;;;;;;;90.20;14.33;;;;;;;;;;5051144;28;20211;-64
2022/03/10 02:33:00;;;;;;;68.63;11.53;;;;;;;;;;5055429;28;20190;-63
2022/03/10 02:35:26;;;;;;;101.90;15.17;;;;;;;;;;5051013;28;20182;-64
2022/03/10 02:37:52;;;;;;;81.13;14.00;;;;;;;;;;5054551;28;20203;-64
2022/03/10 02:40:18;;;;;;;71.27;13.00;;;;;;;;;;5048620;28;20516;-64
2022/03/10 02:42:44;;;;;;;90.33;14.77;;;;;;;;;;5048879;28;20187;-64
2022/03/10 02:45:11;;;;;;;96.43;15.23;;;;;;;;;;5046681;28;20182;-64
2022/03/10 02:47:37;;;;;;;102.97;16.07;;;;;;;;;;5054479;28;20230;-64
2022/03/10 02:50:04;;;;;;;67.33;12.17;;;;;;;;;;5046219;28;23398;-64
2022/03/10 02:52:30;;;;;;;79.10;12.83;;;;;;;;;;5050795;28;20744;-64
2022/03/10 02:54:56;;;;;;;80.43;12.83;;;;;;;;;;5051239;28;20240;-64
2022/03/10 02:57:22;;;;;;;100.87;15.20;;;;;;;;;;5047384;28;20207;-64
2022/03/10 02:59:48;;;;;;;108.23;15.53;;;;;;;;;;5053480;28;20320;-64
2022/03/10 03:02:14;;;;;;;91.03;14.03;;;;;;;;;;5053526;28;20921;-64
2022/03/10 03:04:40;;;;;;;92.53;14.67;;;;;;;;;;5047436;28;20187;-64
2022/03/10 03:07:05;;;;;;;81.17;13.20;;;;;;;;;;5051393;28;20683;-64
2022/03/10 03:09:31;;;;;;;116.03;17.23;;;;;;;;;;5054390;28;20179;-64
2022/03/10 03:11:57;;;;;;;70.30;11.47;;;;;;;;;;5047921;28;20218;-64
2022/03/10 03:14:23;;;;;;;60.37;10.60;;;;;;;;;;5049000;28;20190;-64
2022/03/10 03:16:55;;;;;;;90.30;14.33;;;;;;;;;;5050084;28;20200;-63
2022/03/10 03:19:21;;;;;;;151.67;20.80;;;;;;;;;;5028542;28;20230;-64
2022/03/10 03:21:47;;;;;;;99.07;14.87;;;;;;;;;;5051172;28;20293;-64
2022/03/10 03:24:13;;;;;;;89.70;14.50;;;;;;;;;;5050092;28;20248;-64
2022/03/10 03:26:39;;;;;;;116.97;17.57;;;;;;;;;;5048788;28;20195;-64
2022/03/10 03:29:05;;;;;;;85.63;13.17;;;;;;;;;;5051916;28;20704;-64
2022/03/10 03:31:30;;;;;;;90.43;14.77;;;;;;;;;;5050379;28;20206;-64
2022/03/10 03:33:56;;;;;;;92.23;15.03;;;;;;;;;;5048125;28;20177;-64
2022/03/10 03:36:22;;;;;;;111.10;16.90;;;;;;;;;;5047095;28;20179;-64
2022/03/10 03:38:48;;;;;;;85.87;14.50;;;;;;;;;;5055715;28;20205;-64
2022/03/10 03:41:14;;;;;;;88.77;14.57;;;;;;;;;;5053264;28;20179;-63
2022/03/10 03:43:40;;;;;;;99.87;16.37;;;;;;;;;;5054584;28;20257;-63
2022/03/10 03:46:06;;;;;;;79.33;13.37;;;;;;;;;;5046642;28;20249;-64
2022/03/10 03:48:32;;;;;;;88.43;14.17;;;;;;;;;;5055561;28;20279;-64
2022/03/10 03:50:58;;;;;;;86.30;14.40;;;;;;;;;;5049712;28;20203;-64
2022/03/10 03:53:24;;;;;;;104.87;16.73;;;;;;;;;;5053442;28;20183;-64
2022/03/10 03:55:50;;;;;;;123.57;18.60;;;;;;;;;;5057207;28;20202;-64
2022/03/10 03:58:16;;;;;;;85.60;14.03;;;;;;;;;;5055643;28;20273;-64
2022/03/10 04:00:42;;;;;;;92.70;15.07;;;;;;;;;;5056121;28;20180;-64
2022/03/10 04:03:09;;;;;;;82.63;13.47;;;;;;;;;;5042192;28;20191;-64
2022/03/10 04:05:35;;;;;;;93.20;14.77;;;;;;;;;;5052814;28;20183;-64
2022/03/10 04:08:01;;;;;;;94.67;15.00;;;;;;;;;;5057230;28;20682;-64
2022/03/10 04:10:27;;;;;;;102.90;15.70;;;;;;;;;;5051820;28;20187;-64
2022/03/10 04:12:53;;;;;;;91.13;14.60;;;;;;;;;;5054144;28;20329;-64
2022/03/10 04:15:19;;;;;;;92.27;14.63;;;;;;;;;;5057380;28;20289;-64
2022/03/10 04:17:45;;;;;;;97.97;15.40;;;;;;;;;;5057455;28;20218;-64
2022/03/10 04:20:13;;;;;;;71.07;11.90;;;;;;;;;;5049794;28;20498;-64
2022/03/10 04:22:39;;;;;;;108.90;15.97;;;;;;;;;;5051846;28;20183;-64
2022/03/10 04:25:06;;;;;;;107.53;15.40;;;;;;;;;;5049439;28;20194;-64
2022/03/10 04:27:32;;;;;;;99.10;15.60;;;;;;;;;;5046898;28;20213;-63
2022/03/10 04:29:58;;;;;;;97.10;15.27;;;;;;;;;;5056132;28;20192;-64
2022/03/10 04:32:24;;;;;;;67.13;11.67;;;;;;;;;;5056651;28;20298;-63
2022/03/10 04:34:50;;;;;;;130.90;18.43;;;;;;;;;;5050655;28;20194;-64
2022/03/10 04:37:16;;;;;;;121.50;17.10;;;;;;;;;;5053768;28;20350;-64
2022/03/10 04:39:42;;;;;;;76.50;11.97;;;;;;;;;;5050964;28;20191;-64
2022/03/10 04:42:08;;;;;;;77.03;13.17;;;;;;;;;;5052144;28;20221;-63
2022/03/10 04:44:34;;;;;;;93.10;14.73;;;;;;;;;;5051096;28;20258;-64
2022/03/10 04:47:00;;;;;;;82.87;13.63;;;;;;;;;;5054137;28;20295;-64
2022/03/10 04:49:26;;;;;;;120.93;17.77;;;;;;;;;;5044644;28;20183;-64
2022/03/10 04:51:52;;;;;;;104.27;16.20;;;;;;;;;;5052228;28;20207;-63
2022/03/10 04:54:18;;;;;;;107.67;15.97;;;;;;;;;;5048439;28;20187;-64
2022/03/10 04:56:44;;;;;;;74.83;11.90;;;;;;;;;;5048950;28;20194;-63
2022/03/10 04:59:10;;;;;;;89.80;13.07;;;;;;;;;;5057370;28;20254;-63
2022/03/10 05:01:36;;;;;;;78.93;11.93;;;;;;;;;;5054286;28;20187;-63
2022/03/10 05:04:02;;;;;;;97.70;14.50;;;;;;;;;;5049394;28;20266;-63
2022/03/10 05:06:28;;;;;;;85.87;13.67;;;;;;;;;;5050606;28;20187;-63
2022/03/10 05:08:54;;;;;;;106.10;16.17;;;;;;;;;;5051959;28;20187;-64
2022/03/10 05:11:20;;;;;;;101.27;15.03;;;;;;;;;;5054311;28;20207;-64
2022/03/10 05:13:46;;;;;;;76.90;12.23;;;;;;;;;;5049021;28;20197;-64
2022/03/10 05:16:12;;;;;;;73.53;11.40;;;;;;;;;;5051263;28;20244;-64
2022/03/10 05:18:38;;;;;;;124.03;17.87;;;;;;;;;;5037079;28;20203;-64
2022/03/10 05:21:04;;;;;;;54.07;9.90;;;;;;;;;;5052196;28;20247;-64
2022/03/10 05:23:29;;;;;;;116.43;16.90;;;;;;;;;;5054025;28;20271;-64
2022/03/10 05:25:55;;;;;;;115.23;16.43;;;;;;;;;;5054088;28;20643;-63
2022/03/10 05:28:21;;;;;;;78.57;12.87;;;;;;;;;;5032804;28;20219;-64
2022/03/10 05:30:48;;;;;;;101.43;15.37;;;;;;;;;;5050829;28;20174;-64
2022/03/10 05:33:14;;;;;;;109.47;16.30;;;;;;;;;;5050453;28;20205;-63
2022/03/10 05:35:40;;;;;;;79.90;13.13;;;;;;;;;;5050895;28;20184;-63
2022/03/10 05:38:06;;;;;;;74.77;12.03;;;;;;;;;;5036287;28;21901;-63
2022/03/10 05:40:32;;;;;;;89.57;13.87;;;;;;;;;;5050489;28;20237;-63
2022/03/10 05:42:58;;;;;;;103.17;15.43;;;;;;;;;;5049172;28;20297;-64
2022/03/10 05:45:25;;;;;;;93.50;14.30;;;;;;;;;;5053689;28;20269;-64
2022/03/10 05:47:52;;;;;;;97.83;14.80;;;;;;;;;;5049970;28;20221;-64
2022/03/10 05:50:18;;;;;;;141.07;19.63;;;;;;;;;;5047985;28;20274;-63
2022/03/10 05:52:45;;;;;;;80.27;12.07;;;;;;;;;;5054001;28;20206;-64
2022/03/10 05:55:11;;;;;;;52.03;8.70;;;;;;;;;;5050828;28;20252;-64
2022/03/10 05:57:37;;;;;;;79.80;12.27;;;;;;;;;;5052019;28;20199;-64
2022/03/10 06:00:03;;;;;;;81.50;12.73;;;;;;;;;;5050729;28;20737;-63
2022/03/10 06:02:29;;;;;;;92.60;13.93;;;;;;;;;;5049526;28;21185;-63
2022/03/10 06:04:59;;;;;;;81.27;12.87;;;;;;;;;;5050698;28;20372;-63
2022/03/10 06:07:25;;;;;;;93.37;14.53;;;;;;;;;;5049025;28;20211;-64
2022/03/10 06:09:51;;;;;;;81.03;13.27;;;;;;;;;;5049939;28;20195;-64
2022/03/10 06:12:21;;;;;;;54.07;9.53;;;;;;;;;;5051539;28;20211;-63
2022/03/10 06:14:47;;;;;;;68.97;11.60;;;;;;;;;;5044484;28;20633;-64
2022/03/10 06:17:13;;;;;;;88.33;13.47;;;;;;;;;;5052602;28;20209;-64
2022/03/10 06:19:38;;;;;;;97.57;14.57;;;;;;;;;;5042413;28;22147;-64
2022/03/10 06:22:04;;;;;;;54.57;10.13;;;;;;;;;;5052307;28;20192;-64
2022/03/10 06:24:30;;;;;;;62.07;10.63;;;;;;;;;;5053306;28;20187;-64
2022/03/10 06:26:57;;;;;;;53.30;9.37;;;;;;;;;;5035111;28;20211;-65
2022/03/10 06:29:22;;;;;;;84.20;13.03;;;;;;;;;;5057650;28;20179;-65
2022/03/10 06:31:51;;;;;;;95.90;14.77;;;;;;;;;;5053298;28;20218;-65
2022/03/10 06:34:17;;;;;;;182.03;24.73;;;;;;;;;;5037334;28;20471;-65
2022/03/10 06:36:43;;;;;;;104.77;15.77;;;;;;;;;;5040453;28;20257;-65
2022/03/10 06:39:09;;;;;;;121.57;16.93;;;;;;;;;;5049744;28;20183;-65
2022/03/10 06:41:35;;;;;;;93.33;14.13;;;;;;;;;;5040279;28;20309;-64
2022/03/10 06:44:01;;;;;;;89.80;13.70;;;;;;;;;;5041917;28;20189;-64
2022/03/10 06:46:27;;;;;;;62.50;10.83;;;;;;;;;;5043576;28;20191;-65
2022/03/10 06:48:53;;;;;;;109.30;15.93;;;;;;;;;;5042577;28;20187;-64
2022/03/10 06:51:19;;;;;;;67.60;11.07;;;;;;;;;;5048986;28;20207;-64
2022/03/10 06:53:45;;;;;;;115.03;16.40;;;;;;;;;;5052480;28;20649;-65
2022/03/10 06:56:11;;;;;;;89.97;13.83;;;;;;;;;;5032991;28;21034;-65
2022/03/10 06:58:37;;;;;;;81.63;12.60;;;;;;;;;;5048069;28;20207;-65
2022/03/10 07:01:03;;;;;;;97.30;14.57;;;;;;;;;;5050778;28;20349;-65
2022/03/10 07:03:29;;;;;;;162.77;22.10;;;;;;;;;;5047712;28;20456;-64
2022/03/10 07:05:55;;;;;;;73.43;12.70;;;;;;;;;;5052053;28;20787;-65
2022/03/10 07:08:21;;;;;;;150.50;21.73;;;;;;;;;;5041849;28;20223;-79
2022/03/10 07:10:47;;;;;;;145.37;21.50;;;;;;;;;;5043722;28;20270;-70
2022/03/10 07:13:13;;;;;;;126.23;18.57;;;;;;;;;;5043124;28;20608;-71
2022/03/10 07:15:39;;;;;;;100.87;16.37;;;;;;;;;;5054127;28;20180;-73
2022/03/10 07:18:05;;;;;;;67.10;11.53;;;;;;;;;;5045609;28;20210;-71
2022/03/10 07:20:32;;;;;;;104.23;16.40;;;;;;;;;;5027247;28;20218;-75
2022/03/10 07:22:58;;;;;;;103.80;16.60;;;;;;;;;;5043985;28;20631;-71
2022/03/10 07:25:24;;;;;;;109.90;17.47;;;;;;;;;;5035130;28;20260;-71
2022/03/10 07:27:50;;;;;;;125.27;19.47;;;;;;;;;;5050180;28;20210;-73
2022/03/10 07:30:16;;;;;;;56.93;11.57;;;;;;;;;;5059015;28;20195;-72
2022/03/10 07:32:42;;;;;;;112.90;17.93;;;;;;;;;;5054980;28;20218;-73
2022/03/10 07:35:08;;;;;;;142.57;21.00;;;;;;;;;;5026327;28;20191;-72
2022/03/10 07:37:34;;;;;;;82.83;14.30;;;;;;;;;;5048732;28;21216;-69
2022/03/10 07:40:01;;;;;;;69.03;12.90;;;;;;;;;;5055407;28;20249;-68
2022/03/10 07:42:27;;;;;;;212.63;29.23;;;;;;;;;;5021864;28;20259;-69
2022/03/10 07:44:53;;;;;;;110.90;17.77;;;;;;;;;;5051965;28;20175;-69
2022/03/10 07:47:20;;;;;;;78.70;13.77;;;;;;;;;;5038798;28;20203;-70
2022/03/10 07:49:46;;;;;;;161.17;24.30;;;;;;;;;;5053861;28;20326;-69
2022/03/10 07:52:12;;;;;;;82.30;14.67;;;;;;;;;;5055271;28;20282;-70
2022/03/10 07:54:38;;;;;;;91.40;15.27;;;;;;;;;;5053278;28;20191;-70
2022/03/10 07:57:04;;;;;;;76.97;12.80;;;;;;;;;;5045338;28;20219;-70
2022/03/10 07:59:30;;;;;;;65.43;11.97;;;;;;;;;;5044236;28;20183;-69
2022/03/10 08:01:56;;;;;;;82.40;14.40;;;;;;;;;;5055281;28;20784;-70
2022/03/10 08:04:22;;;;;;;97.63;16.57;;;;;;;;;;5049349;28;20219;-67
2022/03/10 08:06:48;;;;;;;79.40;14.10;;;;;;;;;;5035684;28;21083;-71
2022/03/10 08:09:14;;;;;;;79.53;14.20;;;;;;;;;;5056795;28;20210;-69
2022/03/10 08:11:40;;;;;;;94.67;16.07;;;;;;;;;;5050285;28;20218;-69
2022/03/10 08:14:07;;;;;;;62.50;12.60;;;;;;;;;;5039287;28;20183;-69
2022/03/10 08:16:34;;;;;;;60.90;11.97;;;;;;;;;;5055134;28;20186;-69
2022/03/10 08:19:00;;;;;;;85.97;15.07;;;;;;;;;;5053403;28;20560;-69
2022/03/10 08:21:26;;;;;;;47.87;11.13;;;;;;;;;;5055820;28;20194;-69
2022/03/10 08:23:53;;;;;;;140.77;21.17;;;;;;;;;;5031418;28;20741;-69
2022/03/10 08:26:19;;;;;;;166.83;24.57;;;;;;;;;;5038293;28;20953;-69
2022/03/10 08:28:50;;;;;;;178.90;25.87;;;;;;;;;;5042473;28;20202;-69
2022/03/10 08:31:16;;;;;;;123.80;18.57;;;;;;;;;;5031059;28;20324;-69
2022/03/10 08:33:42;;;;;;;151.07;22.13;;;;;;;;;;5042876;28;20184;-70
2022/03/10 08:36:09;;;;;;;96.00;15.37;;;;;;;;;;5042405;28;20209;-71
2022/03/10 08:38:35;;;;;;;112.00;18.57;;;;;;;;;;5044569;28;20393;-71
2022/03/10 08:41:02;;;;;;;234.70;30.77;;;;;;;;;;5039272;28;20186;-69
2022/03/10 08:43:32;;;;;;;76.70;13.53;;;;;;;;;;5054521;28;20192;-69
2022/03/10 08:46:01;;;;;;;75.20;13.40;;;;;;;;;;5054590;28;20236;-68
2022/03/10 08:48:27;;;;;;;84.93;14.30;;;;;;;;;;5058224;28;20207;-68
2022/03/10 08:50:53;;;;;;;149.43;22.70;;;;;;;;;;5048901;28;20199;-68
2022/03/10 08:53:19;;;;;;;123.40;19.07;;;;;;;;;;5048099;28;20206;-73
2022/03/10 08:55:45;;;;;;;260.47;38.13;;;;;;;;;;5040431;28;20249;-72
2022/03/10 08:58:11;;;;;;;85.40;15.70;;;;;;;;;;5029294;28;20199;-72
2022/03/10 09:00:37;;;;;;;142.57;22.33;;;;;;;;;;5047843;28;20183;-71
2022/03/10 09:03:03;;;;;;;54.07;11.13;;;;;;;;;;5032499;28;20970;-71
2022/03/10 09:05:29;;;;;;;123.40;19.07;;;;;;;;;;5046441;28;20184;-71
2022/03/10 09:07:55;;;;;;;120.03;19.03;;;;;;;;;;5044534;28;20690;-70
2022/03/10 09:10:21;;;;;;;118.30;19.40;;;;;;;;;;5024722;28;20191;-72
2022/03/10 09:12:47;;;;;;;141.10;22.27;;;;;;;;;;5024869;28;21799;-70
2022/03/10 09:15:13;;;;;;;120.70;19.83;;;;;;;;;;5049330;28;20237;-72
2022/03/10 09:17:39;;;;;;;102.93;17.80;;;;;;;;;;5047929;28;20249;-71
2022/03/10 09:20:07;;;;;;;132.13;20.57;;;;;;;;;;5048284;28;20191;-73
2022/03/10 09:22:33;;;;;;;75.47;13.33;;;;;;;;;;5045029;28;20225;-72
2022/03/10 09:25:02;;;;;;;168.40;24.13;;;;;;;;;;5042161;28;20299;-71
2022/03/10 09:27:28;;;;;;;159.23;23.53;;;;;;;;;;5034682;28;20343;-71
2022/03/10 09:29:54;;;;;;;125.37;19.33;;;;;;;;;;5033618;28;20252;-71
2022/03/10 09:32:20;;;;;;;115.00;18.17;;;;;;;;;;5049080;28;20215;-71
2022/03/10 09:34:46;;;;;;;131.67;21.17;;;;;;;;;;5051181;28;20252;-71
2022/03/10 09:37:12;;;;;;;78.40;14.97;;;;;;;;;;5051065;28;20595;-72
2022/03/10 09:39:38;;;;;;;94.93;16.53;;;;;;;;;;5052949;28;20263;-71
2022/03/10 09:42:05;;;;;;;96.33;16.63;;;;;;;;;;5049555;28;20194;-74
2022/03/10 09:44:34;;;;;;;100.80;17.17;;;;;;;;;;5048696;28;20183;-71
2022/03/10 09:47:02;;;;;;;110.23;17.23;;;;;;;;;;5050966;28;20317;-70
2022/03/10 09:49:28;;;;;;;97.97;16.13;;;;;;;;;;5050228;28;20212;-71
2022/03/10 09:51:56;;;;;;;253.00;35.57;;;;;;;;;;5022688;28;20694;-73
2022/03/10 09:54:22;;;;;;;68.17;12.93;;;;;;;;;;5038242;28;20183;-73
2022/03/10 09:56:48;;;;;;;129.17;19.93;;;;;;;;;;5048253;28;20233;-72
2022/03/10 09:59:14;;;;;;;97.63;16.70;;;;;;;;;;5025601;28;20180;-65
2022/03/10 10:01:40;;;;;;;240.93;34.37;;;;;;;;;;5046796;28;20199;-66
2022/03/10 10:04:06;;;;;;;104.83;17.10;;;;;;;;;;5038214;28;20204;-70
2022/03/10 10:06:52;;;;;;;78.90;13.53;;;;;;;;;;5053126;28;20214;-71
2022/03/10 10:09:20;;;;;;;55.60;11.77;;;;;;;;;;5025885;28;20197;-71
2022/03/10 10:11:46;;;;;;;81.73;15.03;;;;;;;;;;5052186;28;20213;-70
2022/03/10 10:14:14;;;;;;;170.73;25.23;;;;;;;;;;5030462;28;21005;-71
2022/03/10 10:16:50;;;;;;;376.80;53.07;;;;;;;;;;5040219;28;20732;-71
2022/03/10 10:19:19;;;;;;;87.47;14.53;;;;;;;;;;5047849;28;20273;-71
2022/03/10 10:22:05;;;;;;;151.27;23.30;;;;;;;;;;5033279;28;20179;-71
2022/03/10 10:24:31;;;;;;;112.23;17.27;;;;;;;;;;5049025;28;20191;-70
2022/03/10 10:27:12;;;;;;;136.43;21.10;;;;;;;;;;5034720;28;20646;-71
2022/03/10 10:29:45;;;;;;;96.70;15.87;;;;;;;;;;5032357;28;20202;-71
2022/03/10 10:32:11;;;;;;;141.20;21.83;;;;;;;;;;5022508;28;22306;-71
2022/03/10 10:34:37;;;;;;;86.73;15.37;;;;;;;;;;5049177;28;20195;-71
2022/03/10 10:37:03;;;;;;;127.47;20.17;;;;;;;;;;5046372;28;20207;-71
2022/03/10 10:39:29;;;;;;;109.43;18.13;;;;;;;;;;5046964;28;20183;-71
2022/03/10 10:41:55;;;;;;;133.00;20.97;;;;;;;;;;5042052;28;20410;-71
2022/03/10 10:44:23;;;;;;;114.23;18.60;;;;;;;;;;5040367;28;20187;-69
2022/03/10 10:46:50;;;;;;;110.77;18.17;;;;;;;;;;5040400;28;20542;-71
2022/03/10 10:49:17;;;;;;;50.60;11.23;;;;;;;;;;5048345;28;20194;-71
2022/03/10 10:51:43;;;;;;;159.27;24.67;;;;;;;;;;5029919;28;20306;-71
2022/03/10 10:54:22;;;;;;;87.93;16.17;;;;;;;;;;5026315;28;20304;-71
2022/03/10 10:56:53;;;;;;;172.60;26.20;;;;;;;;;;5026167;28;20194;-71
2022/03/10 10:59:31;;;;;;;74.07;13.73;;;;;;;;;;5046771;28;20197;-70
2022/03/10 11:02:09;;;;;;;144.40;22.53;;;;;;;;;;5038587;28;20186;-72
2022/03/10 11:04:40;;;;;;;114.73;18.73;;;;;;;;;;5058591;28;20194;-65
2022/03/10 11:07:10;;;;;;;75.37;14.97;;;;;;;;;;5054344;28;20208;-66
2022/03/10 11:09:36;;;;;;;79.57;14.93;;;;;;;;;;5060594;28;20303;-66
2022/03/10 11:12:02;;;;;;;131.10;21.13;;;;;;;;;;5044836;28;20203;-63
2022/03/10 11:14:28;;;;;;;115.73;20.03;;;;;;;;;;5049413;28;20198;-64
2022/03/10 11:16:55;;;;;;;97.40;17.67;;;;;;;;;;5051655;28;20206;-65
2022/03/10 11:19:25;;;;;;;138.10;21.33;;;;;;;;;;5030531;28;20190;-66
2022/03/10 11:22:10;;;;;;;101.17;17.27;;;;;;;;;;5028059;28;20310;-66
2022/03/10 11:24:46;;;;;;;69.90;14.17;;;;;;;;;;5054995;28;20182;-66
2022/03/10 11:27:21;;;;;;;217.17;32.00;;;;;;;;;;5040946;28;20213;-66
2022/03/10 11:29:49;;;;;;;142.43;22.37;;;;;;;;;;5032006;28;20205;-65
2022/03/10 11:32:15;;;;;;;82.40;15.43;;;;;;;;;;5045227;28;20210;-65
2022/03/10 11:34:46;;;;;;;169.87;26.13;;;;;;;;;;5051593;28;20627;-64
2022/03/10 11:37:12;;;;;;;75.70;15.03;;;;;;;;;;5039168;28;21133;-64
2022/03/10 11:39:54;;;;;;;124.17;20.80;;;;;;;;;;5060139;28;20289;-65
2022/03/10 11:42:25;;;;;;;124.97;19.70;;;;;;;;;;5040953;28;20199;-63
2022/03/10 11:45:05;;;;;;;111.37;17.57;;;;;;;;;;5057957;28;20191;-63
2022/03/10 11:47:31;;;;;;;111.33;18.10;;;;;;;;;;5056662;28;20198;-63
2022/03/10 11:49:57;;;;;;;99.83;17.07;;;;;;;;;;5053838;28;20190;-63
2022/03/10 11:52:24;;;;;;;137.93;22.57;;;;;;;;;;5041035;28;20207;-64
2022/03/10 11:55:05;;;;;;;126.90;20.77;;;;;;;;;;5050779;28;20183;-63
2022/03/10 11:57:41;;;;;;;89.17;16.70;;;;;;;;;;5052445;28;20200;-63
2022/03/10 12:00:08;;;;;;;83.63;16.20;;;;;;;;;;5049229;28;20265;-63
2022/03/10 12:02:41;;;;;;;122.53;20.40;;;;;;;;;;5028241;28;20645;-63
2022/03/10 12:05:08;;;;;;;135.37;21.77;;;;;;;;;;5055705;28;20290;-63
2022/03/10 12:07:34;;;;;;;148.27;26.03;;;;;;;;;;5036468;28;20215;-63
2022/03/10 12:10:08;;;;;;;106.77;21.40;;;;;;;;;;5057074;28;20192;-63
2022/03/10 12:12:38;;;;;;;151.90;28.60;;;;;;;;;;5036775;28;20203;-63
2022/03/10 12:15:22;;;;;;;171.53;33.17;;;;;;;;;;5050373;28;20376;-63
2022/03/10 12:17:55;;;;;;;114.87;26.73;;;;;;;;;;5057655;28;20746;-63
2022/03/10 12:20:25;;;;;;;109.97;28.83;;;;;;;;;;5039939;28;20269;-63
2022/03/10 12:23:03;;;;;;;117.63;23.63;;;;;;;;;;5052563;28;20216;-63
2022/03/10 12:25:29;;;;;;;95.07;16.57;;;;;;;;;;5053270;28;20198;-64
2022/03/10 12:27:56;;;;;;;119.77;19.00;;;;;;;;;;5047191;28;20210;-63
2022/03/10 12:30:24;;;;;;;73.57;15.27;;;;;;;;;;5054892;28;20324;-64
2022/03/10 12:32:51;;;;;;;123.53;22.47;;;;;;;;;;5054192;28;20244;-63
2022/03/10 12:35:21;;;;;;;89.00;16.70;;;;;;;;;;5049414;28;20261;-63
2022/03/10 12:37:48;;;;;;;160.90;25.57;;;;;;;;;;5056254;28;20195;-67
2022/03/10 12:40:20;;;;;;;110.90;19.00;;;;;;;;;;5055231;28;20280;-65
2022/03/10 12:42:47;;;;;;;94.73;18.70;;;;;;;;;;5044498;28;20256;-65
2022/03/10 12:45:14;;;;;;;83.70;17.47;;;;;;;;;;5049267;28;20549;-65
2022/03/10 12:47:44;;;;;;;109.33;21.10;;;;;;;;;;5051089;28;20206;-66
2022/03/10 12:50:11;;;;;;;80.30;17.50;;;;;;;;;;5052778;28;20191;-66
2022/03/10 12:52:40;;;;;;;91.33;18.90;;;;;;;;;;5055101;28;20211;-66
2022/03/10 12:55:06;;;;;;;115.73;22.30;;;;;;;;;;5053120;28;20309;-66
2022/03/10 12:57:37;;;;;;;94.53;20.20;;;;;;;;;;5056056;28;20206;-66
2022/03/10 13:00:03;;;;;;;106.03;21.63;;;;;;;;;;5057742;28;20972;-66
2022/03/10 13:02:29;;;;;;;118.83;28.27;;;;;;;;;;5060232;28;20218;-66
2022/03/10 13:05:00;;;;;;;89.20;17.90;;;;;;;;;;5042290;28;20178;-66
2022/03/10 13:07:30;;;;;;;105.00;19.03;;;;;;;;;;5040500;28;20310;-66
2022/03/10 13:09:57;;;;;;;142.17;25.60;;;;;;;;;;5049151;28;20195;-66
2022/03/10 13:12:30;;;;;;;72.17;17.40;;;;;;;;;;5053562;28;20275;-66
2022/03/10 13:14:57;;;;;;;77.83;18.67;;;;;;;;;;5056149;28;20183;-66
2022/03/10 13:17:32;;;;;;;144.37;27.03;;;;;;;;;;5050465;28;20279;-65
2022/03/10 13:19:59;;;;;;;121.73;24.03;;;;;;;;;;5035330;28;20250;-66
2022/03/10 13:22:25;;;;;;;80.57;16.97;;;;;;;;;;5054662;28;23330;-66
2022/03/10 13:24:52;;;;;;;138.23;24.37;;;;;;;;;;5056475;28;20816;-66
2022/03/10 13:27:20;;;;;;;79.43;17.13;;;;;;;;;;5057405;28;20754;-66
2022/03/10 13:29:46;;;;;;;110.70;22.07;;;;;;;;;;5054594;28;20199;-66
2022/03/10 13:32:12;;;;;;;178.70;34.00;;;;;;;;;;5040748;28;20809;-66
2022/03/10 13:34:38;;;;;;;127.83;20.17;;;;;;;;;;5048428;28;20202;-66
2022/03/10 13:37:07;;;;;;;83.53;14.20;;;;;;;;;;5051445;28;20234;-67
2022/03/10 13:39:33;;;;;;;81.43;14.50;;;;;;;;;;5050023;28;20187;-68
2022/03/10 13:41:59;;;;;;;95.35;17.60;;;;;;;;;;5042383;28;20263;-67
2022/03/10 13:44:27;;;;;;;92.13;16.27;;;;;;;;;;5045892;28;20193;-70
2022/03/10 13:47:07;;;;;;;107.80;18.77;;;;;;;;;;5031304;28;20229;-65
2022/03/10 13:49:47;;;;;;;161.10;26.88;;;;;;;;;;5047464;28;20187;-66
2022/03/10 13:52:14;;;;;;;88.63;16.95;;;;;;;;;;5042610;28;20204;-71
2022/03/10 13:54:40;;;;;;;109.45;22.92;;;;;;;;;;5048898;28;20175;-70
2022/03/10 13:57:06;;;;;;;68.88;16.10;;;;;;;;;;5050468;28;20202;-70
2022/03/10 13:59:32;;;;;;;79.28;16.98;;;;;;;;;;5054611;28;20186;-70
2022/03/10 14:01:58;;;;;;;115.20;21.60;;;;;;;;;;5046409;28;20178;-69
2022/03/10 14:04:24;;;;;;;124.22;23.42;;;;;;;;;;5048186;28;20775;-70
2022/03/10 14:06:51;;;;;;;120.65;21.73;;;;;;;;;;5047797;28;20202;-69
2022/03/10 14:09:24;;;;;;;87.40;17.77;;;;;;;;;;5042046;28;20591;-69
2022/03/10 14:11:51;;;;;;;80.43;14.60;;;;;;;;;;5052289;28;20595;-69
2022/03/10 14:14:29;;;;;;;108.90;20.25;;;;;;;;;;5048742;28;20248;-68
2022/03/10 14:16:55;;;;;;;76.57;15.25;;;;;;;;;;5050261;28;20265;-68